Time;durP1;ratioP1;P1;durP2;ratioP2;P2;SDS_P1;SDS_P2;PMS_P1;PMS_P2;Temp;Humidity;BMP_temperature;BMP_pressure;BME280_temperature;BME280_humidity;BME280_pressure;Samples;Min_cycle;Max_cycle;Signal;HPM_P1;HPM_P2
2022/06/04 00:00:54;;;;;;;4.83;2.37;;;18.00;99.90;;;;;;5096845;28;20595;-45
2022/06/04 00:03:21;;;;;;;4.43;2.90;;;17.90;99.90;;;;;;5096845;28;20226;-46
2022/06/04 00:05:51;;;;;;;5.00;2.30;;;17.80;99.90;;;;;;5097113;28;20175;-46
2022/06/04 00:08:17;;;;;;;3.17;2.50;;;17.70;99.90;;;;;;5097581;28;20270;-46
2022/06/04 00:16:21;;;;;;;3.23;2.80;;;17.70;99.90;;;;;;5097273;28;20182;-47
2022/06/04 00:18:47;;;;;;;2.97;2.30;;;17.60;99.90;;;;;;5096640;28;20225;-47
2022/06/04 00:21:13;;;;;;;4.23;2.70;;;17.60;99.90;;;;;;5097042;28;20213;-47
2022/06/04 00:23:39;;;;;;;3.87;2.40;;;17.50;99.90;;;;;;5096983;28;20183;-47
2022/06/04 00:26:07;;;;;;;3.93;2.67;;;17.50;99.90;;;;;;5096674;28;20665;-46
2022/06/04 00:28:33;;;;;;;4.50;2.80;;;17.50;99.90;;;;;;5096794;28;20234;-47
2022/06/04 00:30:59;;;;;;;6.20;2.90;;;17.50;99.90;;;;;;5078433;28;20174;-47
2022/06/04 00:33:25;;;;;;;5.13;2.30;;;17.40;99.90;;;;;;5096476;28;20171;-45
2022/06/04 00:35:53;;;;;;;4.90;2.60;;;17.40;99.90;;;;;;5096618;28;20598;-48
2022/06/04 00:38:21;;;;;;;8.23;2.70;;;17.40;99.90;;;;;;5095757;28;20206;-45
2022/06/04 00:41:09;;;;;;;2.27;2.00;;;17.30;99.90;;;;;;5096384;28;20171;-46
2022/06/04 00:44:10;;;;;;;6.27;2.50;;;17.40;99.90;;;;;;5083392;28;20230;-47
2022/06/04 00:46:41;;;;;;;4.67;2.47;;;17.30;99.90;;;;;;5014178;28;20219;-46
2022/06/04 00:49:21;;;;;;;3.83;2.47;;;17.30;99.90;;;;;;5082231;28;20221;-46
2022/06/04 00:51:49;;;;;;;2.60;2.20;;;17.20;99.90;;;;;;5096200;28;20155;-47
2022/06/04 00:54:15;;;;;;;5.80;2.37;;;17.20;99.90;;;;;;5096359;28;20187;-46
2022/06/04 00:56:49;;;;;;;5.67;2.33;;;17.20;99.90;;;;;;5096232;28;20170;-47
2022/06/04 01:00:03;;;;;;;3.17;2.20;;;17.10;99.90;;;;;;5096042;28;20199;-47
2022/06/04 01:02:44;;;;;;;3.80;2.20;;;17.10;99.90;;;;;;5096070;28;20214;-45
2022/06/04 01:05:29;;;;;;;4.43;2.50;;;17.10;99.90;;;;;;5096124;28;20168;-44
2022/06/04 01:08:34;;;;;;;5.80;2.73;;;17.10;99.90;;;;;;5096087;28;20190;-47
2022/06/04 01:11:17;;;;;;;3.30;2.43;;;17.00;99.90;;;;;;5095926;28;20633;-47
2022/06/04 01:14:03;;;;;;;3.83;2.30;;;17.00;99.90;;;;;;5096152;28;20220;-46
2022/06/04 01:16:51;;;;;;;4.93;2.40;;;16.90;99.90;;;;;;5096191;28;20259;-47
2022/06/04 01:19:16;;;;;;;2.80;2.30;;;16.90;99.90;;;;;;5095734;28;20202;-45
2022/06/04 01:22:08;;;;;;;3.20;1.70;;;16.90;99.90;;;;;;5095725;28;20203;-46
2022/06/04 01:24:46;;;;;;;2.57;2.20;;;16.80;99.90;;;;;;5095776;28;20167;-47
2022/06/04 01:27:16;;;;;;;3.57;2.43;;;16.80;99.90;;;;;;5095933;28;20169;-47
2022/06/04 01:30:07;;;;;;;4.87;2.77;;;16.70;99.90;;;;;;5095508;28;20444;-46
2022/06/04 01:32:32;;;;;;;4.00;2.37;;;16.70;99.90;;;;;;5095626;28;20186;-45
2022/06/04 01:35:11;;;;;;;5.40;2.50;;;16.60;99.90;;;;;;5095437;28;20549;-45
2022/06/04 01:38:03;;;;;;;5.90;2.33;;;16.60;99.90;;;;;;5095577;28;20230;-45
2022/06/04 01:43:23;;;;;;;6.23;2.77;;;16.50;99.90;;;;;;5095148;28;20197;-45
2022/06/04 01:45:51;;;;;;;3.23;2.40;;;16.50;99.90;;;;;;5095312;28;20183;-46
2022/06/04 01:48:19;;;;;;;3.73;2.30;;;16.40;99.90;;;;;;5095148;28;20206;-46
2022/06/04 01:50:51;;;;;;;4.90;2.57;;;16.40;99.90;;;;;;5095177;28;20312;-47
2022/06/04 01:53:20;;;;;;;4.70;2.60;;;16.40;99.90;;;;;;5095428;28;20182;-46
2022/06/04 01:55:54;;;;;;;4.97;2.50;;;16.40;99.90;;;;;;5095437;28;20257;-47
2022/06/04 01:58:49;;;;;;;4.53;2.63;;;16.30;99.90;;;;;;5094637;28;20237;-46
2022/06/04 02:01:22;;;;;;;3.57;2.37;;;16.30;99.90;;;;;;5094861;28;20244;-45
2022/06/04 02:04:03;;;;;;;4.60;2.20;;;16.20;99.90;;;;;;5076737;28;20194;-45
2022/06/04 02:06:37;;;;;;;2.13;1.93;;;16.30;99.90;;;;;;5095035;28;20155;-46
2022/06/04 02:09:10;;;;;;;6.30;2.37;;;16.20;99.90;;;;;;5094851;28;20690;-45
2022/06/04 02:11:38;;;;;;;7.17;2.40;;;16.10;99.90;;;;;;5094583;28;20171;-45
2022/06/04 02:14:06;;;;;;;6.20;2.10;;;16.10;99.90;;;;;;5094679;28;20178;-44
2022/06/04 02:16:54;;;;;;;6.50;2.60;;;16.10;99.90;;;;;;5094924;28;20211;-46
2022/06/04 02:19:20;;;;;;;5.97;3.07;;;16.10;99.90;;;;;;5094668;28;20210;-45
2022/06/04 02:21:45;;;;;;;5.93;2.20;;;16.00;99.90;;;;;;5076437;28;20654;-45
2022/06/04 02:24:11;;;;;;;3.27;2.47;;;16.00;99.90;;;;;;5095093;28;20186;-47
2022/06/04 02:26:41;;;;;;;3.57;2.80;;;15.90;99.90;;;;;;5094640;28;20171;-46
2022/06/04 02:29:06;;;;;;;4.87;2.60;;;15.90;99.90;;;;;;5076973;28;20207;-46
2022/06/04 02:31:58;;;;;;;2.43;2.20;;;15.80;99.90;;;;;;5094339;28;20175;-46
2022/06/04 02:34:35;;;;;;;4.07;2.43;;;15.80;99.90;;;;;;5063345;28;20281;-44
2022/06/04 02:37:24;;;;;;;2.73;2.27;;;15.70;99.90;;;;;;5076208;28;20167;-46
2022/06/04 02:40:02;;;;;;;4.30;2.77;;;15.60;99.90;;;;;;5094589;28;20159;-46
2022/06/04 02:42:46;;;;;;;7.13;2.80;;;15.60;99.90;;;;;;5094640;28;20207;-45
2022/06/04 02:45:24;;;;;;;3.70;2.50;;;15.50;99.90;;;;;;5094760;28;20190;-47
2022/06/04 02:48:06;;;;;;;6.80;2.93;;;15.50;99.90;;;;;;5095019;28;20734;-44
2022/06/04 02:50:38;;;;;;;5.87;3.30;;;15.40;99.90;;;;;;5094344;28;20162;-46
2022/06/04 02:53:05;;;;;;;6.07;3.07;;;15.30;99.90;;;;;;5094522;28;20159;-46
2022/06/04 02:55:36;;;;;;;8.47;3.50;;;15.20;99.90;;;;;;5094207;28;20258;-46
2022/06/04 02:58:08;;;;;;;5.90;3.10;;;15.30;99.90;;;;;;5094052;28;20191;-46
2022/06/04 03:00:34;;;;;;;4.83;2.93;;;15.20;99.90;;;;;;5094021;28;20290;-46
2022/06/04 03:03:00;;;;;;;3.80;3.03;;;15.10;99.90;;;;;;5093558;28;20716;-45
2022/06/04 03:05:27;;;;;;;3.93;3.20;;;15.00;99.90;;;;;;5094053;28;20170;-46
2022/06/04 03:07:58;;;;;;;3.67;2.80;;;14.90;99.90;;;;;;5094076;28;20612;-46
2022/06/04 03:10:35;;;;;;;5.07;2.97;;;14.90;99.90;;;;;;5094843;28;20167;-47
2022/06/04 03:13:00;;;;;;;4.40;3.40;;;14.80;99.90;;;;;;5093911;28;20219;-46
2022/06/04 03:15:26;;;;;;;3.50;2.87;;;14.70;99.90;;;;;;5094109;28;20175;-46
2022/06/04 03:17:53;;;;;;;6.00;3.30;;;14.70;99.90;;;;;;5094362;28;20194;-46
2022/06/04 03:20:24;;;;;;;4.13;3.13;;;14.70;99.90;;;;;;5093826;28;20249;-46
2022/06/04 03:22:50;;;;;;;6.97;3.00;;;14.60;99.90;;;;;;5093621;28;20681;-45
2022/06/04 03:25:16;;;;;;;7.33;3.40;;;14.60;99.90;;;;;;5093712;28;20651;-45
2022/06/04 03:27:41;;;;;;;7.13;3.00;;;14.50;99.90;;;;;;5093679;28;20210;-44
2022/06/04 03:30:08;;;;;;;5.73;3.60;;;14.40;99.90;;;;;;5093720;28;20167;-46
2022/06/04 03:32:34;;;;;;;5.17;4.20;;;14.50;99.90;;;;;;5093477;28;20182;-46
2022/06/04 03:35:00;;;;;;;7.60;3.10;;;14.50;99.90;;;;;;5093978;28;20228;-46
2022/06/04 03:37:25;;;;;;;5.53;3.20;;;14.50;99.90;;;;;;5093770;28;20179;-45
2022/06/04 03:39:51;;;;;;;6.97;3.60;;;14.50;99.90;;;;;;5093783;28;20174;-45
2022/06/04 03:42:17;;;;;;;6.10;3.17;;;14.50;99.90;;;;;;5093748;28;20195;-46
2022/06/04 03:44:46;;;;;;;9.33;3.57;;;14.50;99.90;;;;;;5093805;28;20615;-45
2022/06/04 03:47:13;;;;;;;4.83;3.50;;;14.40;99.90;;;;;;5093548;28;20171;-46
2022/06/04 03:49:38;;;;;;;5.37;3.23;;;14.40;99.90;;;;;;5075225;28;20191;-45
2022/06/04 03:52:05;;;;;;;6.90;3.40;;;14.40;99.90;;;;;;5075544;28;20544;-46
2022/06/04 03:59:58;;;;;;;3.57;2.93;;;14.40;99.90;;;;;;5093422;28;20213;-45
2022/06/04 04:02:24;;;;;;;4.43;3.27;;;14.40;99.90;;;;;;5093529;28;20694;-46
2022/06/04 04:04:50;;;;;;;6.50;3.30;;;14.40;99.90;;;;;;5093706;28;20179;-46
2022/06/04 04:07:15;;;;;;;6.37;3.70;;;14.40;99.90;;;;;;5093685;28;20239;-47
2022/06/04 04:09:41;;;;;;;3.80;2.73;;;14.40;99.90;;;;;;5093674;28;20221;-44
2022/06/04 04:12:08;;;;;;;3.73;3.27;;;14.40;99.90;;;;;;5093679;28;20638;-46
2022/06/04 04:14:33;;;;;;;4.97;3.30;;;14.50;99.90;;;;;;5096116;28;20171;-46
2022/06/04 04:16:59;;;;;;;7.73;2.87;;;14.40;99.90;;;;;;5096850;28;20666;-47
2022/06/04 04:19:28;;;;;;;7.17;3.20;;;14.50;99.90;;;;;;5097307;28;20199;-46
2022/06/04 04:21:53;;;;;;;5.03;3.60;;;14.50;99.90;;;;;;5097003;28;20286;-45
2022/06/04 04:24:20;;;;;;;5.20;3.07;;;14.50;99.90;;;;;;5097533;28;20203;-45
2022/06/04 04:26:45;;;;;;;5.77;3.50;;;14.40;99.90;;;;;;5097597;28;20735;-45
2022/06/04 04:29:11;;;;;;;4.10;3.17;;;14.50;99.90;;;;;;5096844;28;20195;-46
2022/06/04 04:31:37;;;;;;;4.70;3.40;;;14.50;99.90;;;;;;5078640;28;20178;-46
2022/06/04 04:34:03;;;;;;;5.47;3.27;;;14.50;99.90;;;;;;5096768;28;20178;-44
2022/06/04 04:36:30;;;;;;;5.10;3.30;;;14.50;99.90;;;;;;5078724;28;20175;-46
2022/06/04 04:38:56;;;;;;;6.33;3.20;;;14.50;99.90;;;;;;5096573;28;20187;-46
2022/06/04 04:41:23;;;;;;;4.87;3.20;;;14.50;99.90;;;;;;5096620;28;20167;-46
2022/06/04 04:43:50;;;;;;;5.97;3.80;;;14.50;99.90;;;;;;5096755;28;20584;-47
2022/06/04 04:46:16;;;;;;;4.90;3.40;;;14.50;99.90;;;;;;5097200;28;20175;-46
2022/06/04 04:48:44;;;;;;;5.67;3.17;;;14.50;99.90;;;;;;5096652;28;20289;-45
2022/06/04 04:51:25;;;;;;;4.63;3.20;;;14.60;99.90;;;;;;5096643;28;20186;-46
2022/06/04 04:53:52;;;;;;;6.40;4.57;;;14.60;99.90;;;;;;5096373;28;20171;-45
2022/06/04 04:56:19;;;;;;;3.90;3.23;;;14.70;99.90;;;;;;5096563;28;20190;-45
2022/06/04 04:58:45;;;;;;;4.33;3.40;;;14.70;99.90;;;;;;5096732;28;20191;-46
2022/06/04 05:01:29;;;;;;;3.73;3.20;;;14.80;99.90;;;;;;5096320;28;20209;-44
2022/06/04 05:03:55;;;;;;;4.50;3.13;;;14.80;99.90;;;;;;5096287;28;20175;-46
2022/06/04 05:06:22;;;;;;;3.87;2.97;;;14.90;99.90;;;;;;5096292;28;20174;-46
2022/06/04 05:08:49;;;;;;;8.27;3.03;;;14.90;99.90;;;;;;5096115;28;20662;-45
2022/06/04 05:11:18;;;;;;;3.00;2.70;;;15.00;99.90;;;;;;5095964;28;20174;-46
2022/06/04 05:13:49;;;;;;;3.90;3.40;;;15.10;99.90;;;;;;5096261;28;20240;-46
2022/06/04 05:16:26;;;;;;;5.30;3.13;;;15.10;99.90;;;;;;5096287;28;20292;-45
2022/06/04 05:18:51;;;;;;;3.43;3.13;;;15.10;99.90;;;;;;5096364;28;20187;-46
2022/06/04 05:21:22;;;;;;;3.60;3.30;;;15.20;99.90;;;;;;5095852;28;20673;-45
2022/06/04 05:23:49;;;;;;;4.27;3.17;;;15.20;99.90;;;;;;5095652;28;20195;-43
2022/06/04 05:26:16;;;;;;;5.40;3.63;;;15.20;99.90;;;;;;5095466;28;20175;-45
2022/06/04 05:28:42;;;;;;;6.90;3.17;;;15.20;99.90;;;;;;5095897;28;20195;-46
2022/06/04 05:31:09;;;;;;;5.47;3.60;;;15.20;99.90;;;;;;5095900;28;20586;-46
2022/06/04 05:33:34;;;;;;;4.70;3.23;;;15.30;99.90;;;;;;5095729;28;20669;-46
2022/06/04 05:36:02;;;;;;;4.07;3.10;;;15.20;99.90;;;;;;5095698;28;20179;-46
2022/06/04 05:38:27;;;;;;;5.83;3.43;;;15.30;99.90;;;;;;5095907;28;20215;-45
2022/06/04 05:41:10;;;;;;;6.37;3.47;;;15.30;99.90;;;;;;5077069;28;20218;-46
2022/06/04 05:43:38;;;;;;;4.23;3.53;;;15.30;99.90;;;;;;5095136;28;20218;-44
2022/06/04 05:46:11;;;;;;;5.23;3.50;;;15.40;99.90;;;;;;5077683;28;20231;-46
2022/06/04 05:48:41;;;;;;;4.63;3.37;;;15.40;99.90;;;;;;5094915;28;20274;-45
2022/06/04 05:51:10;;;;;;;4.30;3.10;;;15.50;99.90;;;;;;5095116;28;20530;-46
2022/06/04 05:53:36;;;;;;;4.63;3.23;;;15.50;99.90;;;;;;5094828;28;20175;-45
2022/06/04 05:56:02;;;;;;;3.23;2.93;;;15.50;99.90;;;;;;5095130;28;20179;-46
2022/06/04 05:58:27;;;;;;;5.43;3.83;;;15.50;99.90;;;;;;5094835;28;20243;-44
2022/06/04 06:01:00;;;;;;;3.80;3.10;;;15.60;99.90;;;;;;5094623;28;20240;-44
2022/06/04 06:03:25;;;;;;;3.83;3.30;;;15.60;99.90;;;;;;5094527;28;20293;-47
2022/06/04 06:05:51;;;;;;;4.10;3.50;;;15.60;99.90;;;;;;5094820;28;20210;-46
2022/06/04 06:08:17;;;;;;;5.10;3.60;;;15.60;99.90;;;;;;5094480;28;20269;-45
2022/06/04 06:10:46;;;;;;;4.00;3.60;;;15.70;99.90;;;;;;5076339;28;20185;-45
2022/06/04 06:13:12;;;;;;;4.23;3.30;;;15.80;99.90;;;;;;5094394;28;20171;-45
2022/06/04 06:15:38;;;;;;;4.50;3.50;;;15.80;99.90;;;;;;5076290;28;20551;-46
2022/06/04 06:18:06;;;;;;;6.53;3.30;;;15.90;99.90;;;;;;5094615;28;20198;-44
2022/06/04 06:20:33;;;;;;;6.00;3.60;;;15.90;99.90;;;;;;5094249;28;20643;-44
2022/06/04 06:22:58;;;;;;;5.13;3.77;;;15.90;99.90;;;;;;5094438;28;20202;-47
2022/06/04 06:25:25;;;;;;;5.73;4.00;;;16.00;99.90;;;;;;5094459;28;20175;-47
2022/06/04 06:27:50;;;;;;;4.60;3.20;;;16.00;99.90;;;;;;5075952;28;20671;-46
2022/06/04 06:30:16;;;;;;;4.30;3.80;;;16.00;99.90;;;;;;5094200;28;20178;-44
2022/06/04 06:32:42;;;;;;;4.73;3.23;;;16.10;99.90;;;;;;5094397;28;20185;-46
2022/06/04 06:35:09;;;;;;;4.53;4.00;;;16.10;99.90;;;;;;5093969;28;20476;-46
2022/06/04 06:37:35;;;;;;;5.57;3.43;;;16.20;99.90;;;;;;5093580;28;20197;-47
2022/06/04 06:40:01;;;;;;;4.90;3.43;;;16.20;99.90;;;;;;5075851;28;20712;-46
2022/06/04 06:42:27;;;;;;;5.03;3.80;;;16.30;99.90;;;;;;5094030;28;20286;-46
2022/06/04 06:44:53;;;;;;;4.97;4.00;;;16.40;99.90;;;;;;5094134;28;20170;-46
2022/06/04 06:47:20;;;;;;;5.00;3.73;;;16.40;99.90;;;;;;5093804;28;20582;-47
2022/06/04 06:49:45;;;;;;;4.40;3.50;;;16.40;99.90;;;;;;5093711;28;20193;-45
2022/06/04 06:52:13;;;;;;;5.77;3.43;;;16.50;99.90;;;;;;5094044;28;20179;-47
2022/06/04 06:54:39;;;;;;;5.13;3.60;;;16.60;99.90;;;;;;5093994;28;20232;-45
2022/06/04 06:57:07;;;;;;;3.40;3.03;;;16.70;99.90;;;;;;5093604;28;20179;-48
2022/06/04 06:59:34;;;;;;;6.97;4.10;;;16.80;99.90;;;;;;5093560;28;20284;-47
2022/06/04 07:02:00;;;;;;;6.43;3.90;;;16.80;99.90;;;;;;5093849;28;20619;-46
2022/06/04 07:04:27;;;;;;;4.93;3.67;;;16.90;99.90;;;;;;5094248;28;20202;-47
2022/06/04 07:06:58;;;;;;;5.90;4.10;;;16.90;99.90;;;;;;5093509;28;20545;-47
2022/06/04 07:09:28;;;;;;;5.40;3.57;;;17.00;99.90;;;;;;5093740;28;20200;-47
2022/06/04 07:11:54;;;;;;;3.60;3.30;;;17.00;99.90;;;;;;5093833;28;20155;-46
2022/06/04 07:14:22;;;;;;;4.53;3.67;;;17.00;99.90;;;;;;5093707;28;20175;-46
2022/06/04 07:16:49;;;;;;;4.50;3.70;;;17.00;99.90;;;;;;5093646;28;20205;-46
2022/06/04 07:19:15;;;;;;;4.70;4.00;;;17.10;99.90;;;;;;5075606;28;20717;-39
2022/06/04 07:21:41;;;;;;;4.63;3.97;;;17.10;99.90;;;;;;5093360;28;20198;-42
2022/06/04 07:24:08;;;;;;;5.63;3.50;;;17.10;99.90;;;;;;5093460;28;20202;-40
2022/06/04 07:26:33;;;;;;;4.43;3.33;;;17.10;99.90;;;;;;5093312;28;20267;-41
2022/06/04 07:28:59;;;;;;;6.50;4.20;;;17.20;99.90;;;;;;5093538;28;20229;-39
2022/06/04 07:31:25;;;;;;;6.17;3.60;;;17.20;99.90;;;;;;5093327;28;20171;-41
2022/06/04 07:33:55;;;;;;;4.07;3.57;;;17.20;99.90;;;;;;5093554;28;20217;-40
2022/06/04 07:36:23;;;;;;;4.60;3.50;;;17.30;99.90;;;;;;5093714;28;20175;-41
2022/06/04 07:38:49;;;;;;;6.77;3.53;;;17.40;99.90;;;;;;5076062;28;20206;-40
2022/06/04 07:41:27;;;;;;;5.80;3.87;;;17.40;99.90;;;;;;5094021;28;20179;-42
2022/06/04 07:43:53;;;;;;;6.37;3.50;;;17.30;99.90;;;;;;5093217;28;20304;-41
2022/06/04 07:46:20;;;;;;;4.37;3.47;;;17.30;99.90;;;;;;5093453;28;20174;-41
2022/06/04 07:48:46;;;;;;;4.93;4.13;;;17.50;99.90;;;;;;5095886;28;20214;-40
2022/06/04 07:51:12;;;;;;;6.13;3.97;;;17.50;99.90;;;;;;5097309;28;20220;-42
2022/06/04 07:53:38;;;;;;;4.80;3.63;;;17.50;99.90;;;;;;5097511;28;20171;-39
2022/06/04 07:56:06;;;;;;;7.90;3.77;;;17.60;99.90;;;;;;5097768;28;20241;-39
2022/06/04 07:58:31;;;;;;;4.50;4.00;;;17.60;99.90;;;;;;5097315;28;20271;-41
2022/06/04 08:00:58;;;;;;;5.60;3.53;;;17.50;99.90;;;;;;5097074;28;20202;-42
2022/06/04 08:03:24;;;;;;;6.97;3.87;;;17.60;99.90;;;;;;5097081;28;20214;-41
2022/06/04 08:05:52;;;;;;;4.23;3.83;;;17.60;99.90;;;;;;5096929;28;20175;-42
2022/06/04 08:08:18;;;;;;;5.80;4.10;;;17.60;99.90;;;;;;5078564;28;20588;-41
2022/06/04 08:10:49;;;;;;;8.40;4.27;;;17.60;99.90;;;;;;5096805;28;20178;-42
2022/06/04 08:13:33;;;;;;;4.80;3.60;;;17.70;99.90;;;;;;5096781;28;20651;-40
2022/06/04 08:16:03;;;;;;;7.13;3.87;;;17.70;99.90;;;;;;5097279;28;20535;-41
2022/06/04 08:18:29;;;;;;;5.17;4.37;;;17.70;99.90;;;;;;5078412;28;20194;-42
2022/06/04 08:20:54;;;;;;;4.67;3.90;;;17.70;99.90;;;;;;5078679;28;20178;-41
2022/06/04 08:23:20;;;;;;;4.73;4.03;;;17.80;99.90;;;;;;5096793;28;20203;-43
2022/06/04 08:25:50;;;;;;;9.33;4.40;;;17.90;99.90;;;;;;5096811;28;20210;-42
2022/06/04 08:28:17;;;;;;;7.87;4.33;;;17.90;99.90;;;;;;5096522;28;20225;-40
2022/06/04 08:30:44;;;;;;;7.43;4.33;;;18.00;99.90;;;;;;5096470;28;20183;-43
2022/06/04 08:33:10;;;;;;;5.57;3.53;;;18.10;99.90;;;;;;5096493;28;20183;-43
2022/06/04 08:35:36;;;;;;;5.43;4.10;;;18.20;99.90;;;;;;5096360;28;20646;-42
2022/06/04 08:38:02;;;;;;;9.27;4.33;;;18.30;99.90;;;;;;5096250;28;20269;-40
2022/06/04 08:40:37;;;;;;;5.13;4.40;;;18.30;99.90;;;;;;5096654;28;20332;-41
2022/06/04 08:43:40;;;;;;;6.70;3.87;;;18.40;99.90;;;;;;5096259;28;20221;-42
2022/06/04 08:46:15;;;;;;;6.47;4.23;;;18.40;99.90;;;;;;5096327;28;20186;-41
2022/06/04 08:48:42;;;;;;;6.63;4.17;;;18.30;99.90;;;;;;5096396;28;20246;-41
2022/06/04 08:51:23;;;;;;;5.83;3.83;;;18.40;99.90;;;;;;5096103;28;20174;-41
2022/06/04 08:53:52;;;;;;;5.77;3.60;;;18.40;99.90;;;;;;5096350;28;20166;-40
2022/06/04 08:59:23;;;;;;;4.43;4.03;;;18.50;99.90;;;;;;5095432;28;20201;-41
2022/06/04 09:01:56;;;;;;;5.27;4.40;;;18.60;99.90;;;;;;5095890;28;20297;-40
2022/06/04 09:04:21;;;;;;;8.70;4.53;;;18.70;99.90;;;;;;5095984;28;20585;-43
2022/06/04 09:06:55;;;;;;;4.97;4.43;;;18.70;99.90;;;;;;5095727;28;20185;-40
2022/06/04 09:09:30;;;;;;;5.93;4.17;;;18.70;99.90;;;;;;5096215;28;20213;-42
2022/06/04 09:12:07;;;;;;;7.33;3.77;;;18.70;99.90;;;;;;5095780;28;20534;-42
2022/06/04 09:14:44;;;;;;;6.47;3.70;;;18.60;99.90;;;;;;5095930;28;20526;-39
2022/06/04 09:17:15;;;;;;;4.53;4.13;;;18.70;99.90;;;;;;5095906;28;20174;-41
2022/06/04 09:19:48;;;;;;;6.10;4.37;;;18.70;99.90;;;;;;5095505;28;20194;-41
2022/06/04 09:22:19;;;;;;;5.30;4.33;;;18.80;99.90;;;;;;5095528;28;20233;-41
2022/06/04 09:24:45;;;;;;;5.77;4.30;;;18.80;99.90;;;;;;5095718;28;20160;-41
2022/06/04 09:27:28;;;;;;;5.53;3.90;;;19.00;99.90;;;;;;5095342;28;20228;-41
2022/06/04 09:30:21;;;;;;;5.93;4.40;;;19.00;99.90;;;;;;5095292;28;20642;-41
2022/06/04 09:33:05;;;;;;;7.10;4.07;;;19.10;99.90;;;;;;5095491;28;20213;-41
2022/06/04 09:35:38;;;;;;;6.47;4.37;;;19.30;99.90;;;;;;5077614;28;20236;-41
2022/06/04 09:38:04;;;;;;;8.50;4.80;;;19.30;99.90;;;;;;5095139;28;20214;-42
2022/06/04 09:40:33;;;;;;;4.77;4.17;;;19.30;99.90;;;;;;5095598;28;20638;-42
2022/06/04 09:43:15;;;;;;;4.50;4.10;;;19.40;99.90;;;;;;5094993;28;20575;-44
2022/06/04 09:45:41;;;;;;;5.97;4.30;;;19.40;99.90;;;;;;5076924;28;20170;-41
2022/06/04 09:48:24;;;;;;;7.37;4.40;;;19.60;99.90;;;;;;5095247;28;20199;-42
2022/06/04 09:50:54;;;;;;;6.43;4.33;;;19.80;99.90;;;;;;5094867;28;20160;-41
2022/06/04 09:53:24;;;;;;;6.43;4.97;;;19.90;99.90;;;;;;5095355;28;20227;-43
2022/06/04 09:56:04;;;;;;;12.10;5.07;;;20.00;99.90;;;;;;5095182;28;20209;-41
2022/06/04 09:58:33;;;;;;;5.30;4.80;;;20.00;99.90;;;;;;5094950;28;20198;-41
2022/06/04 10:01:20;;;;;;;5.10;4.57;;;20.10;99.90;;;;;;5094587;28;20191;-41
2022/06/04 10:03:59;;;;;;;7.27;4.87;;;20.20;99.90;;;;;;5094922;28;20240;-43
2022/06/04 10:06:26;;;;;;;5.43;4.63;;;20.30;99.90;;;;;;5094703;28;20155;-43
2022/06/04 10:11:54;;;;;;;5.03;4.63;;;20.60;99.90;;;;;;5094134;28;20174;-42
2022/06/04 10:14:56;;;;;;;7.00;5.03;;;20.60;99.90;;;;;;5094976;28;20232;-42
2022/06/04 10:17:34;;;;;;;4.93;4.43;;;20.60;99.90;;;;;;5094569;28;20197;-43
2022/06/04 10:20:00;;;;;;;5.60;5.10;;;20.60;99.90;;;;;;5094934;28;20246;-41
2022/06/04 10:22:26;;;;;;;5.33;4.83;;;20.80;99.90;;;;;;5094427;28;20294;-42
2022/06/04 10:24:59;;;;;;;6.17;4.33;;;20.80;99.90;;;;;;5076058;28;20179;-43
2022/06/04 10:27:40;;;;;;;5.20;4.27;;;20.90;99.90;;;;;;5075939;28;20171;-41
2022/06/04 10:30:09;;;;;;;6.93;4.67;;;21.10;99.90;;;;;;5094404;28;20257;-42
2022/06/04 10:32:44;;;;;;;6.90;4.90;;;21.20;99.90;;;;;;5094338;28;20553;-41
2022/06/04 10:35:46;;;;;;;5.47;4.97;;;21.30;99.90;;;;;;5094366;28;20167;-41
2022/06/04 10:38:26;;;;;;;7.37;4.37;;;21.30;99.90;;;;;;5090015;28;20237;-41
2022/06/04 10:41:26;;;;;;;6.90;5.20;;;21.50;99.90;;;;;;5094564;28;20209;-42
2022/06/04 10:44:04;;;;;;;8.83;4.70;;;21.70;99.90;;;;;;5094534;28;20187;-41
2022/06/04 10:46:42;;;;;;;5.37;4.70;;;21.90;99.90;;;;;;5094487;28;20189;-40
2022/06/04 10:49:42;;;;;;;5.33;4.60;;;22.00;99.90;;;;;;5093787;28;20209;-43
2022/06/04 10:52:21;;;;;;;7.90;5.30;;;22.10;99.90;;;;;;5093757;28;20177;-42
2022/06/04 10:55:20;;;;;;;5.93;5.33;;;22.30;99.90;;;;;;5093959;28;20179;-42
2022/06/04 10:57:53;;;;;;;5.63;5.10;;;22.10;99.90;;;;;;5093577;28;20243;-42
2022/06/04 11:00:36;;;;;;;5.70;5.20;;;22.00;99.90;;;;;;5093725;28;20612;-42
2022/06/04 11:03:16;;;;;;;6.63;4.93;;;21.90;99.90;;;;;;5093850;28;20264;-43
2022/06/04 11:06:10;;;;;;;6.17;4.27;;;21.90;99.90;;;;;;5094212;28;20155;-41
2022/06/04 11:08:48;;;;;;;7.00;5.20;;;22.00;99.90;;;;;;5062734;28;20211;-42
2022/06/04 11:11:24;;;;;;;8.03;5.17;;;22.20;99.90;;;;;;5093841;28;20251;-41
2022/06/04 11:13:59;;;;;;;5.70;5.20;;;22.20;99.90;;;;;;5075397;28;20182;-41
2022/06/04 11:16:50;;;;;;;6.13;5.50;;;22.20;99.90;;;;;;5093899;28;20181;-43
2022/06/04 11:19:21;;;;;;;5.23;4.73;;;22.20;99.90;;;;;;5093611;28;20226;-42
2022/06/04 11:22:08;;;;;;;6.67;5.23;;;22.20;99.90;;;;;;5093295;28;20185;-42
2022/06/04 11:24:43;;;;;;;5.83;4.97;;;22.20;99.90;;;;;;5093697;28;20660;-42
2022/06/04 11:27:31;;;;;;;5.23;4.73;;;22.10;99.90;;;;;;5093589;28;20155;-41
2022/06/04 11:29:57;;;;;;;8.60;5.53;;;22.20;99.90;;;;;;5093617;28;20151;-43
2022/06/04 11:32:44;;;;;;;5.80;5.20;;;22.20;99.90;;;;;;5093606;28;20243;-42
2022/06/04 11:35:25;;;;;;;5.93;5.00;;;22.40;99.90;;;;;;5075162;28;20535;-41
2022/06/04 11:38:09;;;;;;;6.13;5.53;;;22.60;99.90;;;;;;5093408;28;20198;-42
2022/06/04 11:40:49;;;;;;;5.83;5.23;;;22.70;99.90;;;;;;5093500;28;20217;-41
2022/06/04 11:43:43;;;;;;;6.97;5.47;;;22.70;99.90;;;;;;5093449;28;20199;-43
2022/06/04 11:46:19;;;;;;;6.83;4.33;;;22.70;99.90;;;;;;5093304;28;20677;-43
2022/06/04 11:48:55;;;;;;;5.50;4.13;;;22.90;99.90;;;;;;5093280;28;20205;-41
2022/06/04 11:51:50;;;;;;;7.27;5.60;;;23.20;99.90;;;;;;5093216;28;20163;-42
2022/06/04 11:54:46;;;;;;;5.13;4.73;;;23.40;99.90;;;;;;5093329;28;20508;-42
2022/06/04 11:57:12;;;;;;;6.20;4.70;;;23.60;99.90;;;;;;5093359;28;20243;-43
2022/06/04 11:59:53;;;;;;;6.13;5.50;;;23.80;99.90;;;;;;5092914;28;20733;-44
2022/06/04 12:02:22;;;;;;;6.63;4.37;;;23.90;99.90;;;;;;5092924;28;20199;-43
2022/06/04 12:05:06;;;;;;;5.00;4.60;;;23.80;99.90;;;;;;5093812;28;20205;-41
2022/06/04 12:07:43;;;;;;;6.70;5.17;;;23.90;99.90;;;;;;5093341;28;20616;-44
2022/06/04 12:10:18;;;;;;;6.63;4.67;;;24.10;99.90;;;;;;5092961;28;20163;-42
2022/06/04 12:12:55;;;;;;;5.37;4.70;;;24.10;99.90;;;;;;5093273;28;20285;-43
2022/06/04 12:15:32;;;;;;;6.53;5.83;;;24.30;99.90;;;;;;5093297;28;20155;-42
2022/06/04 12:18:03;;;;;;;10.97;5.60;;;24.40;99.90;;;;;;5093062;28;20201;-43
2022/06/04 12:26:23;;;;;;;5.53;4.93;;;24.30;99.90;;;;;;5092873;28;20163;-43
2022/06/04 12:28:49;;;;;;;6.07;4.80;;;24.30;99.90;;;;;;5092706;28;20248;-43
2022/06/04 12:31:36;;;;;;;6.40;4.90;;;24.40;99.90;;;;;;5092775;28;20198;-42
2022/06/04 12:34:18;;;;;;;5.20;4.80;;;24.50;99.90;;;;;;5093079;28;20159;-42
2022/06/04 12:36:50;;;;;;;5.60;5.10;;;24.60;99.90;;;;;;5096806;28;20249;-41
2022/06/04 12:39:34;;;;;;;6.73;5.33;;;24.60;99.90;;;;;;5096575;28;20199;-43
2022/06/04 12:42:10;;;;;;;9.30;5.83;;;24.60;99.90;;;;;;5096545;28;20191;-42
2022/06/04 12:44:35;;;;;;;5.60;5.03;;;24.60;99.90;;;;;;5097131;28;20151;-43
2022/06/04 12:47:23;;;;;;;6.33;5.50;;;24.70;99.90;;;;;;5096577;28;20577;-42
2022/06/04 12:50:02;;;;;;;7.03;6.20;;;24.80;99.90;;;;;;5096955;28;20187;-44
2022/06/04 12:52:51;;;;;;;6.47;5.80;;;24.70;99.90;;;;;;5096613;28;20162;-42
2022/06/04 12:55:32;;;;;;;6.50;5.43;;;24.70;99.90;;;;;;5096140;28;20186;-42
2022/06/04 12:58:20;;;;;;;6.43;5.70;;;24.70;99.90;;;;;;5097578;28;20201;-44
2022/06/04 13:00:59;;;;;;;5.75;4.57;;;24.80;99.90;;;;;;5095901;28;20191;-41
2022/06/04 13:03:39;;;;;;;5.65;5.15;;;24.90;99.90;;;;;;5096408;28;20243;-43
2022/06/04 13:06:23;;;;;;;8.02;5.35;;;25.20;99.90;;;;;;5095834;28;20171;-43
2022/06/04 13:09:00;;;;;;;8.45;5.50;;;25.50;99.90;;;;;;5096019;28;20227;-44
2022/06/04 13:12:05;;;;;;;5.85;4.85;;;25.50;99.90;;;;;;5077581;28;20181;-42
2022/06/04 13:14:48;;;;;;;6.60;5.45;;;25.60;99.90;;;;;;5094979;28;20195;-44
2022/06/04 13:17:31;;;;;;;11.45;6.13;;;25.70;99.90;;;;;;5095722;28;20717;-45
2022/06/04 13:19:59;;;;;;;7.03;5.35;;;25.60;99.90;;;;;;5095860;28;20192;-43
2022/06/04 13:22:33;;;;;;;6.80;5.47;;;25.50;99.90;;;;;;5095645;28;20202;-41
2022/06/04 13:25:00;;;;;;;6.85;4.90;;;25.50;99.90;;;;;;5095751;28;20168;-43
2022/06/04 13:27:38;;;;;;;9.13;6.03;;;25.40;99.90;;;;;;5095482;28;20228;-43
2022/06/04 13:30:05;;;;;;;6.47;5.65;;;25.30;99.90;;;;;;5096085;28;20155;-43
2022/06/04 13:32:33;;;;;;;7.00;5.03;;;25.40;99.90;;;;;;5095899;28;20182;-43
2022/06/04 13:35:05;;;;;;;5.95;5.30;;;25.40;99.90;;;;;;5095721;28;20576;-43
2022/06/04 13:37:33;;;;;;;5.90;5.20;;;25.50;99.90;;;;;;5095325;28;20218;-43
2022/06/04 13:40:02;;;;;;;6.20;5.60;;;25.60;99.90;;;;;;5077183;28;20206;-44